RYR460W EGCC-LFRS
Flight info
| Callsign | RYR460W |
|---|---|
| Flight time | 1h 13m |
| Altitude | 36000 |
| Route | LISTO P18 TELBA L151 KIDLI UN859 CPT Y321 PEPIS Q41 SAM M195 MARUK N621 LELNA DCT DOMOK UT260 UPALO UN862 REN A25 GODAN |
| Aircraft | A320/M-SDE3FGHIRWY/LB1 |
Departure
| Time | 2026-05-05 10:04 |
|---|---|
| Airport | Manchester Airport (EGCC) |
Arrival
| Time | 2026-05-05 11:18 |
|---|---|
| Airport | Nantes Atlantique Airport (LFRS) |
| Time | Latitude | Longitude | Altitude | Speed | Heading |
|---|---|---|---|---|---|
| 2026-05-05 09:26 | 53.35875 | -2.27111 | 239 ft | 0 kts | 29° |
| 2026-05-05 09:52 | 53.35868 | -2.27117 | 239 ft | 4 kts | 29° |
| 2026-05-05 09:53 | 53.35846 | -2.27138 | 239 ft | 2 kts | 29° |
| 2026-05-05 09:53 | 53.35826 | -2.27157 | 240 ft | 4 kts | 29° |
| 2026-05-05 09:53 | 53.35817 | -2.27168 | 240 ft | 4 kts | 8° |
| 2026-05-05 09:53 | 53.35830 | -2.27195 | 240 ft | 4 kts | 301° |
| 2026-05-05 09:54 | 53.35858 | -2.27218 | 241 ft | 4 kts | 170° |
| 2026-05-05 09:54 | 53.35878 | -2.27224 | 241 ft | 4 kts | 169° |
| 2026-05-05 09:54 | 53.35883 | -2.27226 | 241 ft | 0 kts | 169° |
| 2026-05-05 09:56 | 53.35873 | -2.27223 | 241 ft | 3 kts | 169° |
| 2026-05-05 09:56 | 53.35845 | -2.27215 | 241 ft | 5 kts | 175° |
| 2026-05-05 09:57 | 53.35813 | -2.27267 | 241 ft | 8 kts | 233° |
| 2026-05-05 09:57 | 53.35771 | -2.27357 | 243 ft | 11 kts | 231° |
| 2026-05-05 09:57 | 53.35716 | -2.27469 | 245 ft | 14 kts | 231° |
| 2026-05-05 09:57 | 53.35655 | -2.27595 | 247 ft | 14 kts | 231° |
| 2026-05-05 09:58 | 53.35581 | -2.27719 | 249 ft | 16 kts | 223° |
| 2026-05-05 09:58 | 53.35500 | -2.27850 | 250 ft | 17 kts | 225° |
| 2026-05-05 09:58 | 53.35432 | -2.27960 | 251 ft | 10 kts | 224° |
| 2026-05-05 09:58 | 53.35395 | -2.28018 | 252 ft | 4 kts | 223° |
| 2026-05-05 09:59 | 53.35367 | -2.28065 | 253 ft | 8 kts | 225° |
| 2026-05-05 09:59 | 53.35320 | -2.28142 | 253 ft | 11 kts | 224° |
| 2026-05-05 09:59 | 53.35257 | -2.28250 | 255 ft | 15 kts | 228° |
| 2026-05-05 09:59 | 53.35186 | -2.28393 | 256 ft | 17 kts | 231° |
| 2026-05-05 10:00 | 53.35109 | -2.28553 | 258 ft | 18 kts | 232° |
| 2026-05-05 10:00 | 53.35025 | -2.28723 | 260 ft | 19 kts | 227° |
| 2026-05-05 10:00 | 53.34930 | -2.28889 | 262 ft | 20 kts | 226° |
| 2026-05-05 10:00 | 53.34831 | -2.29067 | 264 ft | 21 kts | 229° |
| 2026-05-05 10:01 | 53.34750 | -2.29227 | 266 ft | 16 kts | 231° |
| 2026-05-05 10:01 | 53.34681 | -2.29325 | 268 ft | 0 kts | 202° |
| 2026-05-05 10:02 | 53.34671 | -2.29331 | 268 ft | 3 kts | 198° |
| 2026-05-05 10:02 | 53.34634 | -2.29340 | 269 ft | 7 kts | 183° |
| 2026-05-05 10:02 | 53.34573 | -2.29320 | 270 ft | 10 kts | 154° |
| 2026-05-05 10:03 | 53.34544 | -2.29212 | 270 ft | 12 kts | 66° |
| 2026-05-05 10:03 | 53.34576 | -2.29146 | 268 ft | 0 kts | 51° |
| 2026-05-05 10:03 | 53.34583 | -2.29131 | 268 ft | 7 kts | 51° |
| 2026-05-05 10:03 | 53.34728 | -2.28834 | 265 ft | 69 kts | 51° |
| 2026-05-05 10:04 | 53.35174 | -2.27912 | 253 ft | 132 kts | 51° |
| 2026-05-05 10:04 | 53.35848 | -2.26511 | 404 ft | 165 kts | 50° |
| 2026-05-05 10:04 | 53.36565 | -2.25000 | 1077 ft | 167 kts | 48° |
| 2026-05-05 10:04 | 53.37292 | -2.23485 | 1766 ft | 167 kts | 52° |
| 2026-05-05 10:05 | 53.37687 | -2.21595 | 2163 ft | 185 kts | 88° |
| 2026-05-05 10:05 | 53.37229 | -2.19495 | 2476 ft | 208 kts | 130° |
| 2026-05-05 10:05 | 53.35936 | -2.18205 | 2700 ft | 234 kts | 169° |
| 2026-05-05 10:05 | 53.34251 | -2.17790 | 3076 ft | 256 kts | 173° |
| 2026-05-05 10:06 | 53.32425 | -2.17467 | 3777 ft | 268 kts | 175° |
| 2026-05-05 10:06 | 53.30557 | -2.17198 | 4683 ft | 273 kts | 176° |
| 2026-05-05 10:06 | 53.28633 | -2.17184 | 4967 ft | 277 kts | 184° |
| 2026-05-05 10:06 | 53.26716 | -2.17498 | 5003 ft | 276 kts | 187° |
| 2026-05-05 10:07 | 53.24816 | -2.17923 | 5002 ft | 276 kts | 188° |
| 2026-05-05 10:07 | 53.22917 | -2.18345 | 5010 ft | 276 kts | 188° |
| 2026-05-05 10:07 | 53.21009 | -2.18747 | 5012 ft | 276 kts | 187° |
| 2026-05-05 10:07 | 53.19099 | -2.19110 | 5005 ft | 277 kts | 186° |
| 2026-05-05 10:08 | 53.17189 | -2.19446 | 5004 ft | 275 kts | 186° |
| 2026-05-05 10:08 | 53.15297 | -2.19753 | 5008 ft | 274 kts | 186° |
| 2026-05-05 10:08 | 53.13383 | -2.20062 | 5052 ft | 280 kts | 186° |
| 2026-05-05 10:08 | 53.11435 | -2.20373 | 5901 ft | 281 kts | 186° |
| 2026-05-05 10:09 | 53.09488 | -2.20681 | 6843 ft | 281 kts | 186° |
| 2026-05-05 10:09 | 53.07536 | -2.20985 | 7724 ft | 282 kts | 186° |
| 2026-05-05 10:09 | 53.05573 | -2.21289 | 8581 ft | 285 kts | 187° |
| 2026-05-05 10:09 | 53.03584 | -2.21599 | 9404 ft | 288 kts | 187° |
| 2026-05-05 10:10 | 53.01575 | -2.21909 | 10194 ft | 292 kts | 187° |
| 2026-05-05 10:10 | 52.99482 | -2.22232 | 10505 ft | 313 kts | 187° |
| 2026-05-05 10:10 | 52.97244 | -2.22582 | 10810 ft | 331 kts | 188° |
| 2026-05-05 10:10 | 52.94931 | -2.22945 | 11417 ft | 337 kts | 187° |
| 2026-05-05 10:11 | 52.92585 | -2.23306 | 12135 ft | 340 kts | 187° |
| 2026-05-05 10:11 | 52.90220 | -2.23671 | 12863 ft | 342 kts | 187° |
| 2026-05-05 10:11 | 52.87841 | -2.24038 | 13581 ft | 345 kts | 187° |
| 2026-05-05 10:11 | 52.85456 | -2.24557 | 14249 ft | 346 kts | 194° |
| 2026-05-05 10:12 | 52.83101 | -2.25462 | 14811 ft | 348 kts | 195° |
| 2026-05-05 10:12 | 52.80745 | -2.26371 | 14993 ft | 348 kts | 195° |
| 2026-05-05 10:12 | 52.78388 | -2.27280 | 15044 ft | 348 kts | 194° |
| 2026-05-05 10:12 | 52.76033 | -2.28187 | 15048 ft | 347 kts | 195° |
| 2026-05-05 10:13 | 52.73677 | -2.29086 | 15039 ft | 347 kts | 195° |
| 2026-05-05 10:13 | 52.71331 | -2.29984 | 15056 ft | 347 kts | 195° |
| 2026-05-05 10:13 | 52.68930 | -2.30567 | 15183 ft | 353 kts | 183° |
| 2026-05-05 10:13 | 52.66478 | -2.30233 | 15855 ft | 357 kts | 170° |
| 2026-05-05 10:14 | 52.64097 | -2.28997 | 16483 ft | 362 kts | 158° |
| 2026-05-05 10:14 | 52.61910 | -2.26896 | 17111 ft | 367 kts | 148° |
| 2026-05-05 10:14 | 52.59782 | -2.24560 | 17744 ft | 369 kts | 148° |
| 2026-05-05 10:14 | 52.57633 | -2.22207 | 18377 ft | 372 kts | 149° |
| 2026-05-05 10:15 | 52.55466 | -2.19843 | 18929 ft | 375 kts | 149° |
| 2026-05-05 10:15 | 52.53286 | -2.17467 | 19511 ft | 377 kts | 149° |
| 2026-05-05 10:15 | 52.51096 | -2.15081 | 20094 ft | 379 kts | 149° |
| 2026-05-05 10:15 | 52.48894 | -2.12682 | 20701 ft | 380 kts | 149° |
| 2026-05-05 10:16 | 52.46684 | -2.10277 | 21318 ft | 381 kts | 149° |
| 2026-05-05 10:16 | 52.44465 | -2.07871 | 21871 ft | 383 kts | 149° |
| 2026-05-05 10:16 | 52.42234 | -2.05453 | 22414 ft | 386 kts | 149° |
| 2026-05-05 10:16 | 52.39988 | -2.03025 | 22945 ft | 388 kts | 149° |
| 2026-05-05 10:17 | 52.37725 | -2.00580 | 23478 ft | 391 kts | 149° |
| 2026-05-05 10:17 | 52.35447 | -1.98116 | 23926 ft | 394 kts | 149° |
| 2026-05-05 10:17 | 52.33153 | -1.95633 | 24348 ft | 397 kts | 148° |
| 2026-05-05 10:17 | 52.30841 | -1.93138 | 24763 ft | 399 kts | 148° |
| 2026-05-05 10:18 | 52.28518 | -1.90636 | 25195 ft | 401 kts | 148° |
| 2026-05-05 10:18 | 52.26179 | -1.88124 | 25593 ft | 403 kts | 149° |
| 2026-05-05 10:18 | 52.23826 | -1.85595 | 26034 ft | 405 kts | 149° |
| 2026-05-05 10:18 | 52.21438 | -1.83027 | 26452 ft | 407 kts | 149° |
| 2026-05-05 10:19 | 52.19064 | -1.80483 | 26840 ft | 409 kts | 149° |
| 2026-05-05 10:19 | 52.16707 | -1.77968 | 27210 ft | 412 kts | 149° |
| 2026-05-05 10:19 | 52.14304 | -1.75410 | 27593 ft | 414 kts | 149° |
| 2026-05-05 10:19 | 52.11854 | -1.72804 | 27978 ft | 416 kts | 149° |
| 2026-05-05 10:20 | 52.09427 | -1.70226 | 28362 ft | 418 kts | 149° |
| 2026-05-05 10:20 | 52.06983 | -1.67628 | 28724 ft | 421 kts | 149° |
| 2026-05-05 10:20 | 52.04529 | -1.65015 | 29107 ft | 423 kts | 150° |
| 2026-05-05 10:20 | 52.02034 | -1.62619 | 29473 ft | 421 kts | 160° |
| 2026-05-05 10:21 | 51.99253 | -1.61283 | 29880 ft | 415 kts | 175° |
| 2026-05-05 10:21 | 51.96352 | -1.61238 | 30224 ft | 412 kts | 189° |
| 2026-05-05 10:21 | 51.93546 | -1.61926 | 30505 ft | 414 kts | 191° |
| 2026-05-05 10:21 | 51.90658 | -1.62679 | 30786 ft | 417 kts | 191° |
| 2026-05-05 10:22 | 51.87792 | -1.63439 | 31107 ft | 418 kts | 191° |
| 2026-05-05 10:22 | 51.84924 | -1.64200 | 31490 ft | 418 kts | 190° |
| 2026-05-05 10:22 | 51.82055 | -1.64956 | 31883 ft | 418 kts | 190° |
| 2026-05-05 10:22 | 51.79181 | -1.65706 | 32320 ft | 418 kts | 189° |
| 2026-05-05 10:23 | 51.76308 | -1.66445 | 32812 ft | 417 kts | 189° |
| 2026-05-05 10:23 | 51.73444 | -1.67180 | 33262 ft | 417 kts | 189° |
| 2026-05-05 10:23 | 51.70578 | -1.67917 | 33686 ft | 417 kts | 189° |
| 2026-05-05 10:23 | 51.67711 | -1.68654 | 34058 ft | 418 kts | 189° |
| 2026-05-05 10:24 | 51.64839 | -1.69393 | 34333 ft | 419 kts | 189° |
| 2026-05-05 10:24 | 51.61957 | -1.70134 | 34622 ft | 419 kts | 189° |
| 2026-05-05 10:24 | 51.59071 | -1.70874 | 34893 ft | 420 kts | 189° |
| 2026-05-05 10:24 | 51.56180 | -1.71613 | 34991 ft | 421 kts | 189° |
| 2026-05-05 10:25 | 51.50401 | -1.73082 | 35013 ft | 420 kts | 189° |
| 2026-05-05 10:25 | 51.44632 | -1.74548 | 35012 ft | 420 kts | 189° |
| 2026-05-05 10:26 | 51.38866 | -1.76014 | 35004 ft | 419 kts | 189° |
| 2026-05-05 10:26 | 51.33099 | -1.77489 | 34999 ft | 420 kts | 189° |
| 2026-05-05 10:27 | 51.27335 | -1.78952 | 34996 ft | 419 kts | 189° |
| 2026-05-05 10:27 | 51.21567 | -1.80418 | 34990 ft | 420 kts | 189° |
| 2026-05-05 10:28 | 51.15794 | -1.81867 | 34993 ft | 420 kts | 189° |
| 2026-05-05 10:28 | 51.10025 | -1.83315 | 34992 ft | 420 kts | 189° |
| 2026-05-05 10:29 | 51.04202 | -1.84766 | 34995 ft | 420 kts | 189° |
| 2026-05-05 10:29 | 50.98433 | -1.86194 | 34990 ft | 420 kts | 189° |
| 2026-05-05 10:30 | 50.92700 | -1.87626 | 34981 ft | 420 kts | 189° |
| 2026-05-05 10:30 | 50.86884 | -1.89070 | 34997 ft | 421 kts | 188° |
| 2026-05-05 10:31 | 50.81094 | -1.90493 | 34987 ft | 422 kts | 188° |
| 2026-05-05 10:31 | 50.76266 | -1.91692 | 34988 ft | 423 kts | 188° |
| 2026-05-05 10:32 | 50.70453 | -1.93135 | 34995 ft | 423 kts | 188° |
| 2026-05-05 10:32 | 50.64641 | -1.94572 | 34995 ft | 423 kts | 188° |
| 2026-05-05 10:33 | 50.58828 | -1.95993 | 34981 ft | 423 kts | 188° |
| 2026-05-05 10:33 | 50.52998 | -1.97410 | 34975 ft | 424 kts | 189° |
| 2026-05-05 10:34 | 50.47164 | -1.98842 | 34969 ft | 425 kts | 189° |
| 2026-05-05 10:34 | 50.41317 | -2.00269 | 34976 ft | 425 kts | 189° |
| 2026-05-05 10:35 | 50.35426 | -2.01703 | 34974 ft | 426 kts | 189° |
| 2026-05-05 10:35 | 50.29615 | -2.03110 | 34986 ft | 426 kts | 189° |
| 2026-05-05 10:36 | 50.23753 | -2.04516 | 34986 ft | 426 kts | 189° |
| 2026-05-05 10:36 | 50.17855 | -2.05954 | 34988 ft | 426 kts | 189° |
| 2026-05-05 10:37 | 50.11992 | -2.07373 | 34990 ft | 426 kts | 189° |
| 2026-05-05 10:37 | 50.06134 | -2.08771 | 34995 ft | 426 kts | 189° |
| 2026-05-05 10:38 | 50.00280 | -2.10161 | 34992 ft | 426 kts | 189° |
| 2026-05-05 10:38 | 49.94368 | -2.10637 | 35000 ft | 426 kts | 180° |
| 2026-05-05 10:39 | 49.88441 | -2.10609 | 34995 ft | 426 kts | 180° |
| 2026-05-05 10:39 | 49.82528 | -2.10570 | 34996 ft | 425 kts | 180° |
| 2026-05-05 10:40 | 49.76614 | -2.10523 | 34989 ft | 425 kts | 180° |
| 2026-05-05 10:40 | 49.70738 | -2.09735 | 34996 ft | 425 kts | 167° |
| 2026-05-05 10:41 | 49.65046 | -2.07241 | 34993 ft | 425 kts | 165° |
| 2026-05-05 10:41 | 49.59359 | -2.04750 | 34993 ft | 425 kts | 165° |
| 2026-05-05 10:42 | 49.50845 | -2.01022 | 34990 ft | 424 kts | 165° |
| 2026-05-05 10:43 | 49.45187 | -1.98542 | 35002 ft | 422 kts | 165° |
| 2026-05-05 10:43 | 49.39552 | -1.96083 | 34990 ft | 420 kts | 165° |
| 2026-05-05 10:44 | 49.33938 | -1.93650 | 34989 ft | 419 kts | 165° |
| 2026-05-05 10:44 | 49.28338 | -1.91220 | 34985 ft | 418 kts | 165° |
| 2026-05-05 10:45 | 49.22760 | -1.88813 | 34979 ft | 416 kts | 165° |
| 2026-05-05 10:45 | 49.17206 | -1.86414 | 34978 ft | 414 kts | 165° |
| 2026-05-05 10:46 | 49.11666 | -1.84035 | 34972 ft | 413 kts | 165° |
| 2026-05-05 10:46 | 49.06140 | -1.81659 | 34974 ft | 412 kts | 164° |
| 2026-05-05 10:47 | 49.00630 | -1.79292 | 34888 ft | 410 kts | 164° |
| 2026-05-05 10:47 | 48.97906 | -1.78128 | 34640 ft | 404 kts | 164° |
| 2026-05-05 10:47 | 48.95212 | -1.76985 | 34409 ft | 400 kts | 164° |
| 2026-05-05 10:47 | 48.92532 | -1.75888 | 34172 ft | 396 kts | 167° |
| 2026-05-05 10:48 | 48.89821 | -1.75258 | 33933 ft | 393 kts | 175° |
| 2026-05-05 10:48 | 48.87100 | -1.75151 | 33657 ft | 390 kts | 178° |
| 2026-05-05 10:48 | 48.84389 | -1.75125 | 33377 ft | 389 kts | 178° |
| 2026-05-05 10:48 | 48.81691 | -1.75091 | 33101 ft | 387 kts | 178° |
| 2026-05-05 10:49 | 48.78997 | -1.75055 | 32824 ft | 386 kts | 178° |
| 2026-05-05 10:49 | 48.76317 | -1.75020 | 32552 ft | 385 kts | 177° |
| 2026-05-05 10:49 | 48.73643 | -1.74985 | 32284 ft | 384 kts | 177° |
| 2026-05-05 10:49 | 48.70977 | -1.74952 | 32012 ft | 382 kts | 177° |
| 2026-05-05 10:50 | 48.68320 | -1.74920 | 31753 ft | 381 kts | 177° |
| 2026-05-05 10:50 | 48.65672 | -1.74886 | 31494 ft | 380 kts | 177° |
| 2026-05-05 10:50 | 48.63032 | -1.74852 | 31235 ft | 379 kts | 176° |
| 2026-05-05 10:50 | 48.60395 | -1.74817 | 30975 ft | 377 kts | 176° |
| 2026-05-05 10:51 | 48.57786 | -1.74782 | 30572 ft | 374 kts | 176° |
| 2026-05-05 10:51 | 48.55189 | -1.74753 | 30146 ft | 372 kts | 176° |
| 2026-05-05 10:51 | 48.52604 | -1.74726 | 29688 ft | 371 kts | 176° |
| 2026-05-05 10:51 | 48.50029 | -1.74697 | 29283 ft | 369 kts | 176° |
| 2026-05-05 10:52 | 48.47473 | -1.74665 | 28876 ft | 366 kts | 176° |
| 2026-05-05 10:52 | 48.44928 | -1.74630 | 28482 ft | 364 kts | 176° |
| 2026-05-05 10:52 | 48.42407 | -1.74598 | 28099 ft | 362 kts | 176° |
| 2026-05-05 10:52 | 48.39900 | -1.74570 | 27706 ft | 359 kts | 176° |
| 2026-05-05 10:53 | 48.37407 | -1.74544 | 27323 ft | 357 kts | 176° |
| 2026-05-05 10:53 | 48.34931 | -1.74520 | 26941 ft | 356 kts | 176° |
| 2026-05-05 10:53 | 48.32458 | -1.74492 | 26556 ft | 355 kts | 176° |
| 2026-05-05 10:53 | 48.29990 | -1.74460 | 26171 ft | 354 kts | 176° |
| 2026-05-05 10:54 | 48.27526 | -1.74427 | 25782 ft | 353 kts | 176° |
| 2026-05-05 10:54 | 48.25065 | -1.74395 | 25373 ft | 354 kts | 176° |
| 2026-05-05 10:54 | 48.22570 | -1.74362 | 24964 ft | 354 kts | 176° |
| 2026-05-05 10:54 | 48.20103 | -1.74329 | 24558 ft | 355 kts | 176° |
| 2026-05-05 10:55 | 48.17640 | -1.74296 | 24133 ft | 354 kts | 176° |
| 2026-05-05 10:55 | 48.15175 | -1.74266 | 23712 ft | 354 kts | 176° |
| 2026-05-05 10:55 | 48.12716 | -1.74243 | 23249 ft | 353 kts | 176° |
| 2026-05-05 10:55 | 48.10256 | -1.74218 | 22805 ft | 352 kts | 176° |
| 2026-05-05 10:56 | 48.07814 | -1.74263 | 22378 ft | 351 kts | 182° |
| 2026-05-05 10:56 | 48.05443 | -1.74934 | 21954 ft | 353 kts | 194° |
| 2026-05-05 10:56 | 48.03089 | -1.76137 | 21519 ft | 353 kts | 196° |
| 2026-05-05 10:56 | 48.00765 | -1.77344 | 21082 ft | 353 kts | 196° |
| 2026-05-05 10:57 | 47.98449 | -1.78539 | 20649 ft | 351 kts | 196° |
| 2026-05-05 10:57 | 47.96140 | -1.79723 | 20221 ft | 350 kts | 196° |
| 2026-05-05 10:57 | 47.93840 | -1.80900 | 19790 ft | 349 kts | 196° |
| 2026-05-05 10:57 | 47.91550 | -1.82074 | 19356 ft | 348 kts | 196° |
| 2026-05-05 10:58 | 47.89268 | -1.83245 | 18925 ft | 346 kts | 196° |
| 2026-05-05 10:58 | 47.86995 | -1.84408 | 18503 ft | 345 kts | 196° |
| 2026-05-05 10:58 | 47.84727 | -1.85565 | 18053 ft | 343 kts | 196° |
| 2026-05-05 10:58 | 47.82474 | -1.86715 | 17597 ft | 341 kts | 196° |
| 2026-05-05 10:59 | 47.80239 | -1.87855 | 17179 ft | 338 kts | 196° |
| 2026-05-05 10:59 | 47.78025 | -1.88987 | 16768 ft | 335 kts | 197° |
| 2026-05-05 10:59 | 47.75829 | -1.90108 | 16360 ft | 333 kts | 197° |
| 2026-05-05 10:59 | 47.73646 | -1.91216 | 15954 ft | 330 kts | 196° |
| 2026-05-05 11:00 | 47.71475 | -1.92317 | 15562 ft | 329 kts | 197° |
| 2026-05-05 11:00 | 47.69316 | -1.93409 | 15153 ft | 327 kts | 198° |
| 2026-05-05 11:00 | 47.67163 | -1.94493 | 14746 ft | 326 kts | 196° |
| 2026-05-05 11:00 | 47.64943 | -1.95062 | 14323 ft | 324 kts | 180° |
| 2026-05-05 11:01 | 47.62716 | -1.94680 | 13922 ft | 322 kts | 163° |
| 2026-05-05 11:01 | 47.60648 | -1.93438 | 13493 ft | 321 kts | 153° |
| 2026-05-05 11:01 | 47.58647 | -1.91976 | 13074 ft | 320 kts | 153° |
| 2026-05-05 11:01 | 47.56654 | -1.90525 | 12666 ft | 319 kts | 153° |
| 2026-05-05 11:02 | 47.54666 | -1.89082 | 12263 ft | 318 kts | 154° |
| 2026-05-05 11:02 | 47.52684 | -1.87641 | 11857 ft | 317 kts | 154° |
| 2026-05-05 11:02 | 47.50705 | -1.86203 | 11454 ft | 316 kts | 154° |
| 2026-05-05 11:02 | 47.48736 | -1.84774 | 11055 ft | 315 kts | 154° |
| 2026-05-05 11:03 | 47.46765 | -1.83352 | 10664 ft | 314 kts | 154° |
| 2026-05-05 11:03 | 47.44815 | -1.81946 | 10418 ft | 308 kts | 154° |
| 2026-05-05 11:03 | 47.42913 | -1.80577 | 10187 ft | 302 kts | 154° |
| 2026-05-05 11:03 | 47.41025 | -1.79216 | 9851 ft | 301 kts | 154° |
| 2026-05-05 11:04 | 47.39157 | -1.77868 | 9591 ft | 297 kts | 154° |
| 2026-05-05 11:04 | 47.37301 | -1.76525 | 9406 ft | 299 kts | 154° |
| 2026-05-05 11:04 | 47.35429 | -1.75176 | 9250 ft | 299 kts | 155° |
| 2026-05-05 11:04 | 47.33574 | -1.73836 | 9086 ft | 295 kts | 155° |
| 2026-05-05 11:05 | 47.31733 | -1.72506 | 8931 ft | 295 kts | 155° |
| 2026-05-05 11:05 | 47.29883 | -1.71174 | 8773 ft | 296 kts | 155° |
| 2026-05-05 11:05 | 47.28033 | -1.69844 | 8617 ft | 296 kts | 155° |
| 2026-05-05 11:05 | 47.26192 | -1.68522 | 8454 ft | 292 kts | 155° |
| 2026-05-05 11:06 | 47.24373 | -1.67220 | 8301 ft | 291 kts | 155° |
| 2026-05-05 11:06 | 47.22551 | -1.65921 | 8150 ft | 290 kts | 155° |
| 2026-05-05 11:06 | 47.20740 | -1.64626 | 7986 ft | 289 kts | 155° |
| 2026-05-05 11:06 | 47.18922 | -1.63355 | 7755 ft | 289 kts | 160° |
| 2026-05-05 11:07 | 47.16969 | -1.62923 | 7530 ft | 281 kts | 188° |
| 2026-05-05 11:07 | 47.15130 | -1.63742 | 7423 ft | 276 kts | 213° |
| 2026-05-05 11:07 | 47.13716 | -1.65567 | 7289 ft | 270 kts | 234° |
| 2026-05-05 11:07 | 47.12524 | -1.67720 | 7150 ft | 272 kts | 234° |
| 2026-05-05 11:08 | 47.11332 | -1.69877 | 7004 ft | 272 kts | 234° |
| 2026-05-05 11:08 | 47.10148 | -1.72017 | 6848 ft | 265 kts | 233° |
| 2026-05-05 11:08 | 47.09386 | -1.73390 | 6771 ft | 260 kts | 233° |
| 2026-05-05 11:08 | 47.08264 | -1.75406 | 6646 ft | 251 kts | 233° |
| 2026-05-05 11:09 | 47.07178 | -1.77355 | 6523 ft | 242 kts | 234° |
| 2026-05-05 11:09 | 47.06122 | -1.79252 | 6193 ft | 242 kts | 234° |
| 2026-05-05 11:09 | 47.05033 | -1.81213 | 5657 ft | 249 kts | 233° |
| 2026-05-05 11:09 | 47.03949 | -1.83153 | 5183 ft | 244 kts | 233° |
| 2026-05-05 11:10 | 47.02882 | -1.85066 | 4713 ft | 240 kts | 234° |
| 2026-05-05 11:10 | 47.01850 | -1.86898 | 4486 ft | 225 kts | 232° |
| 2026-05-05 11:10 | 47.00582 | -1.88166 | 4119 ft | 224 kts | 196° |
| 2026-05-05 11:10 | 46.99078 | -1.87948 | 3821 ft | 218 kts | 152° |
| 2026-05-05 11:11 | 46.97945 | -1.86540 | 3579 ft | 213 kts | 134° |
| 2026-05-05 11:11 | 46.96964 | -1.84915 | 3310 ft | 212 kts | 129° |
| 2026-05-05 11:11 | 46.96059 | -1.83196 | 3109 ft | 214 kts | 123° |
| 2026-05-05 11:11 | 46.95467 | -1.81241 | 2996 ft | 206 kts | 101° |
| 2026-05-05 11:12 | 46.95379 | -1.79262 | 2986 ft | 187 kts | 81° |
| 2026-05-05 11:12 | 46.95697 | -1.77476 | 2995 ft | 178 kts | 62° |
| 2026-05-05 11:12 | 46.96332 | -1.75973 | 3000 ft | 171 kts | 45° |
| 2026-05-05 11:12 | 46.97212 | -1.74832 | 3003 ft | 167 kts | 28° |
| 2026-05-05 11:13 | 46.98229 | -1.74034 | 2991 ft | 165 kts | 22° |
| 2026-05-05 11:13 | 46.99258 | -1.73255 | 3022 ft | 163 kts | 22° |
| 2026-05-05 11:13 | 47.00271 | -1.72490 | 3016 ft | 164 kts | 23° |
| 2026-05-05 11:13 | 47.01291 | -1.71718 | 2917 ft | 165 kts | 23° |
| 2026-05-05 11:14 | 47.02310 | -1.70947 | 2735 ft | 165 kts | 22° |
| 2026-05-05 11:14 | 47.03316 | -1.70187 | 2533 ft | 164 kts | 22° |
| 2026-05-05 11:14 | 47.04340 | -1.69410 | 2306 ft | 164 kts | 22° |
| 2026-05-05 11:14 | 47.05344 | -1.68649 | 2088 ft | 162 kts | 22° |
| 2026-05-05 11:15 | 47.06345 | -1.67891 | 1860 ft | 162 kts | 22° |
| 2026-05-05 11:15 | 47.07306 | -1.67159 | 1651 ft | 147 kts | 21° |
| 2026-05-05 11:15 | 47.08192 | -1.66485 | 1458 ft | 139 kts | 20° |
| 2026-05-05 11:15 | 47.09054 | -1.65833 | 1273 ft | 140 kts | 20° |
| 2026-05-05 11:16 | 47.09917 | -1.65177 | 1078 ft | 140 kts | 21° |
| 2026-05-05 11:16 | 47.10774 | -1.64531 | 863 ft | 139 kts | 20° |
| 2026-05-05 11:16 | 47.11633 | -1.63887 | 698 ft | 138 kts | 21° |
| 2026-05-05 11:16 | 47.12478 | -1.63238 | 521 ft | 135 kts | 23° |
| 2026-05-05 11:17 | 47.13315 | -1.62600 | 300 ft | 135 kts | 24° |
| 2026-05-05 11:17 | 47.14151 | -1.61964 | 136 ft | 136 kts | 24° |
| 2026-05-05 11:17 | 47.14917 | -1.61382 | 97 ft | 105 kts | 27° |
| 2026-05-05 11:17 | 47.15414 | -1.60999 | 101 ft | 56 kts | 27° |
| 2026-05-05 11:18 | 47.15721 | -1.60768 | 100 ft | 47 kts | 26° |
| 2026-05-05 11:18 | 47.15836 | -1.60643 | 98 ft | 13 kts | 76° |
| 2026-05-05 11:18 | 47.15814 | -1.60534 | 98 ft | 10 kts | 126° |
| 2026-05-05 11:18 | 47.15765 | -1.60466 | 101 ft | 10 kts | 143° |
| 2026-05-05 11:19 | 47.15709 | -1.60404 | 100 ft | 11 kts | 143° |
| 2026-05-05 11:19 | 47.15644 | -1.60326 | 100 ft | 13 kts | 139° |
| 2026-05-05 11:19 | 47.15601 | -1.60245 | 101 ft | 10 kts | 118° |
| 2026-05-05 11:19 | 47.15575 | -1.60167 | 102 ft | 4 kts | 115° |
| 2026-05-05 11:20 | 47.15584 | -1.60140 | 102 ft | 3 kts | 40° |
| 2026-05-05 11:20 | 47.15608 | -1.60119 | 102 ft | 5 kts | 25° |
| 2026-05-05 11:20 | 47.15628 | -1.60108 | 102 ft | 3 kts | 20° |
| 2026-05-05 11:20 | 47.15632 | -1.60106 | 102 ft | 0 kts | 20° |